sensor_id;sensor_type;location;lat;lon;timestamp;pressure;altitude;pressure_sealevel;temperature;humidity
71964;BME280;59834;52.124;5.422;2023-11-21T00:02:23;101087.28;;;5.80;100.00
71964;BME280;59834;52.124;5.422;2023-11-21T00:04:50;101083.09;;;5.76;100.00
71964;BME280;59834;52.124;5.422;2023-11-21T00:07:17;101089.22;;;5.75;100.00
71964;BME280;59834;52.124;5.422;2023-11-21T00:09:43;101095.97;;;5.79;100.00
71964;BME280;59834;52.124;5.422;2023-11-21T00:12:10;101095.97;;;5.79;100.00
71964;BME280;59834;52.124;5.422;2023-11-21T00:14:37;101101.16;;;5.79;100.00
71964;BME280;59834;52.124;5.422;2023-11-21T00:17:05;101102.13;;;5.76;100.00
71964;BME280;59834;52.124;5.422;2023-11-21T00:19:32;101091.69;;;5.78;100.00
71964;BME280;59834;52.124;5.422;2023-11-21T00:21:59;101103.78;;;5.79;100.00
71964;BME280;59834;52.124;5.422;2023-11-21T00:24:26;101107.28;;;5.78;100.00
71964;BME280;59834;52.124;5.422;2023-11-21T00:26:53;101097.78;;;5.77;100.00
71964;BME280;59834;52.124;5.422;2023-11-21T00:29:19;101111.63;;;5.77;100.00
71964;BME280;59834;52.124;5.422;2023-11-21T00:31:46;101105.72;;;5.74;100.00
71964;BME280;59834;52.124;5.422;2023-11-21T00:34:12;101110.13;;;5.72;100.00
71964;BME280;59834;52.124;5.422;2023-11-21T00:36:40;101104.00;;;5.73;100.00
71964;BME280;59834;52.124;5.422;2023-11-21T00:39:06;101115.31;;;5.72;100.00
71964;BME280;59834;52.124;5.422;2023-11-21T00:41:34;101114.34;;;5.74;100.00
71964;BME280;59834;52.124;5.422;2023-11-21T00:44:00;101117.97;;;5.70;100.00
71964;BME280;59834;52.124;5.422;2023-11-21T00:46:27;101117.19;;;5.68;100.00
71964;BME280;59834;52.124;5.422;2023-11-21T00:48:55;101110.31;;;5.67;100.00
71964;BME280;59834;52.124;5.422;2023-11-21T00:51:22;101125.00;;;5.66;100.00
71964;BME280;59834;52.124;5.422;2023-11-21T00:53:49;101117.28;;;5.65;100.00
71964;BME280;59834;52.124;5.422;2023-11-21T00:56:15;101126.97;;;5.61;100.00
71964;BME280;59834;52.124;5.422;2023-11-21T00:58:42;101128.94;;;5.55;100.00
71964;BME280;59834;52.124;5.422;2023-11-21T01:01:10;101129.13;;;5.50;100.00
71964;BME280;59834;52.124;5.422;2023-11-21T01:03:36;101126.63;;;5.47;100.00
71964;BME280;59834;52.124;5.422;2023-11-21T01:06:04;101141.41;;;5.45;100.00
71964;BME280;59834;52.124;5.422;2023-11-21T01:08:34;101141.50;;;5.43;100.00
71964;BME280;59834;52.124;5.422;2023-11-21T01:11:02;101139.72;;;5.44;100.00
71964;BME280;59834;52.124;5.422;2023-11-21T01:13:28;101144.09;;;5.43;100.00
71964;BME280;59834;52.124;5.422;2023-11-21T01:15:56;101149.19;;;5.45;100.00
71964;BME280;59834;52.124;5.422;2023-11-21T01:18:23;101150.78;;;5.49;100.00
71964;BME280;59834;52.124;5.422;2023-11-21T01:20:52;101150.66;;;5.52;100.00
71964;BME280;59834;52.124;5.422;2023-11-21T01:23:20;101158.53;;;5.51;100.00
71964;BME280;59834;52.124;5.422;2023-11-21T01:25:46;101153.38;;;5.49;100.00
71964;BME280;59834;52.124;5.422;2023-11-21T01:28:13;101144.75;;;5.49;100.00
71964;BME280;59834;52.124;5.422;2023-11-21T01:30:39;101149.94;;;5.49;100.00
71964;BME280;59834;52.124;5.422;2023-11-21T01:33:06;101139.63;;;5.47;100.00
71964;BME280;59834;52.124;5.422;2023-11-21T01:35:33;101148.19;;;5.49;100.00
71964;BME280;59834;52.124;5.422;2023-11-21T01:38:01;101150.66;;;5.52;100.00
71964;BME280;59834;52.124;5.422;2023-11-21T01:40:28;101150.50;;;5.57;100.00
71964;BME280;59834;52.124;5.422;2023-11-21T01:42:55;101153.84;;;5.60;100.00
71964;BME280;59834;52.124;5.422;2023-11-21T01:45:23;101159.91;;;5.59;100.00
71964;BME280;59834;52.124;5.422;2023-11-21T01:47:51;101154.59;;;5.62;100.00
71964;BME280;59834;52.124;5.422;2023-11-21T01:50:23;101157.16;;;5.64;100.00
71964;BME280;59834;52.124;5.422;2023-11-21T01:52:51;101163.19;;;5.64;100.00
71964;BME280;59834;52.124;5.422;2023-11-21T01:55:19;101167.56;;;5.64;100.00
71964;BME280;59834;52.124;5.422;2023-11-21T01:57:55;101161.50;;;5.63;100.00
71964;BME280;59834;52.124;5.422;2023-11-21T02:00:22;101161.38;;;5.66;100.00
71964;BME280;59834;52.124;5.422;2023-11-21T02:02:51;101170.88;;;5.67;100.00
71964;BME280;59834;52.124;5.422;2023-11-21T02:05:19;101169.84;;;5.72;100.00
71964;BME280;59834;52.124;5.422;2023-11-21T02:07:47;101172.44;;;5.72;100.00
71964;BME280;59834;52.124;5.422;2023-11-21T02:10:15;101181.91;;;5.73;100.00
71964;BME280;59834;52.124;5.422;2023-11-21T02:12:43;101187.84;;;5.76;100.00
71964;BME280;59834;52.124;5.422;2023-11-21T02:15:14;101193.66;;;5.83;100.00
71964;BME280;59834;52.124;5.422;2023-11-21T02:17:42;101198.63;;;5.89;100.00
71964;BME280;59834;52.124;5.422;2023-11-21T02:20:12;101201.94;;;5.94;100.00
71964;BME280;59834;52.124;5.422;2023-11-21T02:22:42;101207.06;;;5.96;100.00
71964;BME280;59834;52.124;5.422;2023-11-21T02:25:09;101200.19;;;5.95;100.00
71964;BME280;59834;52.124;5.422;2023-11-21T02:27:36;101206.22;;;5.95;100.00
71964;BME280;59834;52.124;5.422;2023-11-21T02:30:03;101195.72;;;5.98;100.00
71964;BME280;59834;52.124;5.422;2023-11-21T02:32:30;101202.59;;;5.99;100.00
71964;BME280;59834;52.124;5.422;2023-11-21T02:34:58;101201.56;;;6.03;100.00
71964;BME280;59834;52.124;5.422;2023-11-21T02:37:27;101208.34;;;6.07;100.00
71964;BME280;59834;52.124;5.422;2023-11-21T02:39:53;101205.63;;;6.10;100.00
71964;BME280;59834;52.124;5.422;2023-11-21T02:42:20;101205.56;;;6.12;100.00
71964;BME280;59834;52.124;5.422;2023-11-21T02:44:46;101209.91;;;6.11;100.00
71964;BME280;59834;52.124;5.422;2023-11-21T02:47:13;101206.28;;;6.16;100.00
71964;BME280;59834;52.124;5.422;2023-11-21T02:49:39;101207.09;;;6.18;100.00
71964;BME280;59834;52.124;5.422;2023-11-21T02:52:07;101200.84;;;6.22;100.00
71964;BME280;59834;52.124;5.422;2023-11-21T02:54:33;101209.44;;;6.24;100.00
71964;BME280;59834;52.124;5.422;2023-11-21T02:57:02;101207.75;;;6.23;100.00
71964;BME280;59834;52.124;5.422;2023-11-21T02:59:29;101207.75;;;6.23;100.00
71964;BME280;59834;52.124;5.422;2023-11-21T03:01:55;101202.53;;;6.23;100.00
71964;BME280;59834;52.124;5.422;2023-11-21T03:04:23;101207.63;;;6.26;100.00
71964;BME280;59834;52.124;5.422;2023-11-21T03:06:50;101216.22;;;6.28;100.00
71964;BME280;59834;52.124;5.422;2023-11-21T03:09:16;101210.91;;;6.31;100.00
71964;BME280;59834;52.124;5.422;2023-11-21T03:11:43;101208.09;;;6.35;100.00
71964;BME280;59834;52.124;5.422;2023-11-21T03:14:09;101203.75;;;6.36;100.00
71964;BME280;59834;52.124;5.422;2023-11-21T03:16:37;101194.19;;;6.36;100.00
71964;BME280;59834;52.124;5.422;2023-11-21T03:19:04;101204.59;;;6.36;100.00
71964;BME280;59834;52.124;5.422;2023-11-21T03:21:31;101206.31;;;6.37;100.00
71964;BME280;59834;52.124;5.422;2023-11-21T03:23:57;101210.38;;;6.43;100.00
71964;BME280;59834;52.124;5.422;2023-11-21T03:26:26;101208.63;;;6.44;100.00
71964;BME280;59834;52.124;5.422;2023-11-21T03:28:52;101210.38;;;6.43;100.00
71964;BME280;59834;52.124;5.422;2023-11-21T03:31:20;101213.06;;;6.42;100.00
71964;BME280;59834;52.124;5.422;2023-11-21T03:33:47;101207.03;;;6.41;100.00
71964;BME280;59834;52.124;5.422;2023-11-21T03:36:14;101205.25;;;6.42;100.00
71964;BME280;59834;52.124;5.422;2023-11-21T03:38:44;101207.88;;;6.42;100.00
71964;BME280;59834;52.124;5.422;2023-11-21T03:41:11;101214.75;;;6.43;100.00
71964;BME280;59834;52.124;5.422;2023-11-21T03:43:37;101223.34;;;6.45;100.00
71964;BME280;59834;52.124;5.422;2023-11-21T03:46:05;101217.22;;;6.46;100.00
71964;BME280;59834;52.124;5.422;2023-11-21T03:48:31;101217.19;;;6.47;100.00
71964;BME280;59834;52.124;5.422;2023-11-21T03:50:59;101222.22;;;6.50;100.00
71964;BME280;59834;52.124;5.422;2023-11-21T03:53:26;101222.09;;;6.53;100.00
71964;BME280;59834;52.124;5.422;2023-11-21T03:55:53;101232.47;;;6.55;100.00
71964;BME280;59834;52.124;5.422;2023-11-21T03:58:19;101235.91;;;6.55;100.00
71964;BME280;59834;52.124;5.422;2023-11-21T04:00:47;101235.91;;;6.55;100.00
71964;BME280;59834;52.124;5.422;2023-11-21T04:03:15;101241.09;;;6.55;100.00
71964;BME280;59834;52.124;5.422;2023-11-21T04:05:42;101242.66;;;6.59;100.00
71964;BME280;59834;52.124;5.422;2023-11-21T04:08:08;101241.75;;;6.60;100.00
71964;BME280;59834;52.124;5.422;2023-11-21T04:10:35;101246.00;;;6.63;100.00
71964;BME280;59834;52.124;5.422;2023-11-21T04:13:01;101246.84;;;6.64;100.00
71964;BME280;59834;52.124;5.422;2023-11-21T04:15:28;101249.44;;;6.64;100.00
71964;BME280;59834;52.124;5.422;2023-11-21T04:17:55;101255.44;;;6.66;100.00
71964;BME280;59834;52.124;5.422;2023-11-21T04:20:24;101261.44;;;6.68;100.00
71964;BME280;59834;52.124;5.422;2023-11-21T04:22:51;101267.41;;;6.70;100.00
71964;BME280;59834;52.124;5.422;2023-11-21T04:25:18;101260.41;;;6.72;100.00
71964;BME280;59834;52.124;5.422;2023-11-21T04:27:45;101270.72;;;6.73;100.00
71964;BME280;59834;52.124;5.422;2023-11-21T04:30:13;101280.16;;;6.76;100.00
71964;BME280;59834;52.124;5.422;2023-11-21T04:32:40;101274.97;;;6.76;100.00
71964;BME280;59834;52.124;5.422;2023-11-21T04:35:07;101280.03;;;6.79;100.00
71964;BME280;59834;52.124;5.422;2023-11-21T04:37:35;101278.25;;;6.81;100.00
71964;BME280;59834;52.124;5.422;2023-11-21T04:40:01;101279.13;;;6.80;100.00
71964;BME280;59834;52.124;5.422;2023-11-21T04:42:29;101289.50;;;6.81;100.00
71964;BME280;59834;52.124;5.422;2023-11-21T04:44:56;101293.91;;;6.79;100.00
71964;BME280;59834;52.124;5.422;2023-11-21T04:47:22;101299.94;;;6.80;100.00
71964;BME280;59834;52.124;5.422;2023-11-21T04:49:50;101300.75;;;6.82;100.00
71964;BME280;59834;52.124;5.422;2023-11-21T04:52:16;101305.16;;;6.80;100.00
71964;BME280;59834;52.124;5.422;2023-11-21T04:54:43;101299.81;;;6.83;100.00
71964;BME280;59834;52.124;5.422;2023-11-21T04:57:10;101295.41;;;6.85;100.00
71964;BME280;59834;52.124;5.422;2023-11-21T04:59:36;101291.09;;;6.84;100.00
71964;BME280;59834;52.124;5.422;2023-11-21T05:02:03;101289.38;;;6.84;100.00
71964;BME280;59834;52.124;5.422;2023-11-21T05:04:31;101294.56;;;6.84;100.00
71964;BME280;59834;52.124;5.422;2023-11-21T05:06:58;101302.31;;;6.86;100.00
71964;BME280;59834;52.124;5.422;2023-11-21T05:09:25;101312.59;;;6.89;100.00
71964;BME280;59834;52.124;5.422;2023-11-21T05:11:51;101306.47;;;6.90;100.00
71964;BME280;59834;52.124;5.422;2023-11-21T05:14:19;101310.78;;;6.91;100.00
71964;BME280;59834;52.124;5.422;2023-11-21T05:16:46;101317.66;;;6.92;100.00
71964;BME280;59834;52.124;5.422;2023-11-21T05:19:13;101319.34;;;6.93;100.00
71964;BME280;59834;52.124;5.422;2023-11-21T05:21:39;101323.66;;;6.94;100.00
71964;BME280;59834;52.124;5.422;2023-11-21T05:24:06;101327.13;;;6.95;100.00
71964;BME280;59834;52.124;5.422;2023-11-21T05:26:33;101324.44;;;6.96;100.00
71964;BME280;59834;52.124;5.422;2023-11-21T05:28:59;101327.00;;;6.98;100.00
71964;BME280;59834;52.124;5.422;2023-11-21T05:31:26;101320.78;;;7.00;100.00
71964;BME280;59834;52.124;5.422;2023-11-21T05:33:53;101322.50;;;7.01;100.00
71964;BME280;59834;52.124;5.422;2023-11-21T05:36:19;101327.63;;;7.03;100.00
71964;BME280;59834;52.124;5.422;2023-11-21T05:38:46;101327.59;;;7.04;100.00
71964;BME280;59834;52.124;5.422;2023-11-21T05:41:12;101338.84;;;7.05;100.00
71964;BME280;59834;52.124;5.422;2023-11-21T05:43:40;101338.78;;;7.06;100.00
71964;BME280;59834;52.124;5.422;2023-11-21T05:46:10;101346.56;;;7.06;100.00
71964;BME280;59834;52.124;5.422;2023-11-21T05:48:36;101347.38;;;7.08;100.00
71964;BME280;59834;52.124;5.422;2023-11-21T05:51:05;101338.59;;;7.11;100.00
71964;BME280;59834;52.124;5.422;2023-11-21T05:53:35;101352.50;;;7.10;100.00
71964;BME280;59834;52.124;5.422;2023-11-21T05:56:02;101355.91;;;7.12;100.00
71964;BME280;59834;52.124;5.422;2023-11-21T05:58:30;101352.47;;;7.12;100.00
71964;BME280;59834;52.124;5.422;2023-11-21T06:00:56;101361.13;;;7.12;100.00
71964;BME280;59834;52.124;5.422;2023-11-21T06:03:23;101368.84;;;7.14;100.00
71964;BME280;59834;52.124;5.422;2023-11-21T06:05:51;101360.16;;;7.15;100.00
71964;BME280;59834;52.124;5.422;2023-11-21T06:08:18;101367.97;;;7.15;100.00
71964;BME280;59834;52.124;5.422;2023-11-21T06:10:45;101377.44;;;7.16;100.00
71964;BME280;59834;52.124;5.422;2023-11-21T06:13:15;101383.50;;;7.16;100.00
71964;BME280;59834;52.124;5.422;2023-11-21T06:15:42;101380.78;;;7.19;100.00
71964;BME280;59834;52.124;5.422;2023-11-21T06:18:09;101384.19;;;7.21;100.00
71964;BME280;59834;52.124;5.422;2023-11-21T06:20:40;101384.94;;;7.23;100.00
71964;BME280;59834;52.124;5.422;2023-11-21T06:23:07;101390.09;;;7.25;100.00
71964;BME280;59834;52.124;5.422;2023-11-21T06:25:33;101392.63;;;7.26;100.00
71964;BME280;59834;52.124;5.422;2023-11-21T06:28:02;101386.47;;;7.29;100.00
71964;BME280;59834;52.124;5.422;2023-11-21T06:30:29;101389.78;;;7.32;100.00
71964;BME280;59834;52.124;5.422;2023-11-21T06:32:57;101398.38;;;7.35;100.00
71964;BME280;59834;52.124;5.422;2023-11-21T06:35:24;101391.41;;;7.35;100.00
71964;BME280;59834;52.124;5.422;2023-11-21T06:37:51;101404.31;;;7.38;100.00
71964;BME280;59834;52.124;5.422;2023-11-21T06:40:19;101405.09;;;7.40;100.00
71964;BME280;59834;52.124;5.422;2023-11-21T06:42:48;101398.97;;;7.41;100.00
71964;BME280;59834;52.124;5.422;2023-11-21T06:45:16;101407.56;;;7.43;100.00
71964;BME280;59834;52.124;5.422;2023-11-21T06:47:43;101407.50;;;7.45;100.00
71964;BME280;59834;52.124;5.422;2023-11-21T06:50:10;101413.44;;;7.48;100.00
71964;BME280;59834;52.124;5.422;2023-11-21T06:52:37;101409.91;;;7.49;100.00
71964;BME280;59834;52.124;5.422;2023-11-21T06:55:04;101410.72;;;7.51;100.00
71964;BME280;59834;52.124;5.422;2023-11-21T06:57:31;101419.28;;;7.53;100.00
71964;BME280;59834;52.124;5.422;2023-11-21T06:59:57;101421.00;;;7.54;100.00
71964;BME280;59834;52.124;5.422;2023-11-21T07:02:24;101423.53;;;7.56;100.00
71964;BME280;59834;52.124;5.422;2023-11-21T07:04:51;101426.94;;;7.58;100.00
71964;BME280;59834;52.124;5.422;2023-11-21T07:07:18;101437.28;;;7.60;100.00
71964;BME280;59834;52.124;5.422;2023-11-21T07:09:47;101438.84;;;7.64;100.00
71964;BME280;59834;52.124;5.422;2023-11-21T07:12:14;101443.94;;;7.67;100.00
71964;BME280;59834;52.124;5.422;2023-11-21T07:14:41;101444.72;;;7.69;100.00
71964;BME280;59834;52.124;5.422;2023-11-21T07:17:11;101446.34;;;7.71;100.00
71964;BME280;59834;52.124;5.422;2023-11-21T07:19:39;101451.38;;;7.76;100.00
71964;BME280;59834;52.124;5.422;2023-11-21T07:22:06;101453.00;;;7.78;100.00
71964;BME280;59834;52.124;5.422;2023-11-21T07:24:32;101468.44;;;7.83;100.00
71964;BME280;59834;52.124;5.422;2023-11-21T07:26:59;101461.41;;;7.85;100.00
71964;BME280;59834;52.124;5.422;2023-11-21T07:29:25;101463.91;;;7.88;100.00
71964;BME280;59834;52.124;5.422;2023-11-21T07:31:54;101468.06;;;7.92;100.00
71964;BME280;59834;52.124;5.422;2023-11-21T07:34:23;101476.63;;;7.94;100.00
71964;BME280;59834;52.124;5.422;2023-11-21T07:36:50;101467.00;;;7.96;100.00
71964;BME280;59834;52.124;5.422;2023-11-21T07:39:17;101462.59;;;7.98;100.00
71964;BME280;59834;52.124;5.422;2023-11-21T07:41:43;101476.47;;;7.99;100.00
71964;BME280;59834;52.124;5.422;2023-11-21T07:44:16;101464.28;;;7.99;100.00
71964;BME280;59834;52.124;5.422;2023-11-21T07:46:47;101473.72;;;8.02;100.00
71964;BME280;59834;52.124;5.422;2023-11-21T07:49:14;101479.66;;;8.06;100.00
71964;BME280;59834;52.124;5.422;2023-11-21T07:51:47;101488.25;;;8.08;100.00
71964;BME280;59834;52.124;5.422;2023-11-21T07:54:13;101483.91;;;8.08;100.00
71964;BME280;59834;52.124;5.422;2023-11-21T07:56:40;101493.28;;;8.12;100.00
71964;BME280;59834;52.124;5.422;2023-11-21T07:59:06;101493.19;;;8.14;100.00
71964;BME280;59834;52.124;5.422;2023-11-21T08:01:38;101496.47;;;8.19;100.00
71964;BME280;59834;52.124;5.422;2023-11-21T08:04:06;101499.72;;;8.24;100.00
71964;BME280;59834;52.124;5.422;2023-11-21T08:06:34;101512.50;;;8.30;100.00
71964;BME280;59834;52.124;5.422;2023-11-21T08:09:01;101512.25;;;8.36;100.00
71964;BME280;59834;52.124;5.422;2023-11-21T08:11:28;101518.25;;;8.38;100.00
71964;BME280;59834;52.124;5.422;2023-11-21T08:13:57;101527.66;;;8.42;100.00
71964;BME280;59834;52.124;5.422;2023-11-21T08:16:25;101527.41;;;8.48;100.00
71964;BME280;59834;52.124;5.422;2023-11-21T08:18:52;101535.94;;;8.52;100.00
71964;BME280;59834;52.124;5.422;2023-11-21T08:21:18;101542.00;;;8.53;100.00
71964;BME280;59834;52.124;5.422;2023-11-21T08:23:46;101551.50;;;8.54;100.00
71964;BME280;59834;52.124;5.422;2023-11-21T08:26:16;101547.84;;;8.58;100.00
71964;BME280;59834;52.124;5.422;2023-11-21T08:28:44;101557.31;;;8.60;100.00
71964;BME280;59834;52.124;5.422;2023-11-21T08:31:12;101555.41;;;8.64;100.00
71964;BME280;59834;52.124;5.422;2023-11-21T08:33:41;101557.97;;;8.65;100.00
71964;BME280;59834;52.124;5.422;2023-11-21T08:36:09;101570.16;;;8.65;100.00
71964;BME280;59834;52.124;5.422;2023-11-21T08:38:37;101575.31;;;8.66;100.00
71964;BME280;59834;52.124;5.422;2023-11-21T08:41:07;101580.53;;;8.66;100.00
71964;BME280;59834;52.124;5.422;2023-11-21T08:43:35;101586.59;;;8.67;100.00
71964;BME280;59834;52.124;5.422;2023-11-21T08:46:02;101590.00;;;8.69;100.00
71964;BME280;59834;52.124;5.422;2023-11-21T08:48:29;101595.84;;;8.74;100.00
71964;BME280;59834;52.124;5.422;2023-11-21T08:50:56;101599.16;;;8.78;100.00
71964;BME280;59834;52.124;5.422;2023-11-21T08:53:23;101596.38;;;8.82;100.00
71964;BME280;59834;52.124;5.422;2023-11-21T08:55:49;101599.75;;;8.84;100.00
71964;BME280;59834;52.124;5.422;2023-11-21T08:58:16;101604.97;;;8.84;100.00
71964;BME280;59834;52.124;5.422;2023-11-21T09:00:43;101606.59;;;8.87;100.00
71964;BME280;59834;52.124;5.422;2023-11-21T09:03:13;101589.13;;;8.89;100.00
71964;BME280;59834;52.124;5.422;2023-11-21T09:05:39;101593.91;;;8.98;100.00
71964;BME280;59834;52.124;5.422;2023-11-21T09:08:06;101606.50;;;9.09;100.00
71964;BME280;59834;52.124;5.422;2023-11-21T09:10:34;101612.94;;;9.20;100.00
71964;BME280;59834;52.124;5.422;2023-11-21T09:13:03;101629.97;;;9.29;100.00
71964;BME280;59834;52.124;5.422;2023-11-21T09:15:30;101633.44;;;9.30;100.00
71964;BME280;59834;52.124;5.422;2023-11-21T09:17:56;101640.59;;;9.25;100.00
71964;BME280;59834;52.124;5.422;2023-11-21T09:20:23;101645.22;;;9.19;100.00
71964;BME280;59834;52.124;5.422;2023-11-21T09:22:49;101638.34;;;9.17;100.00
71964;BME280;59834;52.124;5.422;2023-11-21T09:25:16;101642.72;;;9.16;100.00
71964;BME280;59834;52.124;5.422;2023-11-21T09:27:44;101642.72;;;9.16;100.00
71964;BME280;59834;52.124;5.422;2023-11-21T09:30:12;101646.19;;;9.17;100.00
71964;BME280;59834;52.124;5.422;2023-11-21T09:32:40;101650.63;;;9.15;100.00
71964;BME280;59834;52.124;5.422;2023-11-21T09:35:08;101657.59;;;9.14;100.00
71964;BME280;59834;52.124;5.422;2023-11-21T09:37:35;101659.38;;;9.14;100.00
71964;BME280;59834;52.124;5.422;2023-11-21T09:40:02;101673.22;;;9.16;100.00
71964;BME280;59834;52.124;5.422;2023-11-21T09:42:39;101675.84;;;9.16;100.00
71964;BME280;59834;52.124;5.422;2023-11-21T09:45:26;101676.81;;;9.13;100.00
71964;BME280;59834;52.124;5.422;2023-11-21T09:47:58;101684.69;;;9.12;100.00
71964;BME280;59834;52.124;5.422;2023-11-21T09:50:25;101689.16;;;9.10;100.00
71964;BME280;59834;52.124;5.422;2023-11-21T09:55:44;101699.75;;;9.07;100.00
71964;BME280;59834;52.124;5.422;2023-11-21T09:58:13;101700.66;;;9.06;100.00
71964;BME280;59834;52.124;5.422;2023-11-21T10:00:41;101708.50;;;9.06;100.00
71964;BME280;59834;52.124;5.422;2023-11-21T10:03:09;101703.28;;;9.06;100.00
71964;BME280;59834;52.124;5.422;2023-11-21T10:05:36;101706.66;;;9.08;100.00
71964;BME280;59834;52.124;5.422;2023-11-21T10:08:06;101712.84;;;9.05;100.00
71964;BME280;59834;52.124;5.422;2023-11-21T10:10:35;101712.13;;;9.02;100.00
71964;BME280;59834;52.124;5.422;2023-11-21T10:13:04;101711.38;;;9.00;100.00
71964;BME280;59834;52.124;5.422;2023-11-21T10:15:34;101716.59;;;9.00;100.00
71964;BME280;59834;52.124;5.422;2023-11-21T10:18:15;101723.63;;;8.97;100.00
71964;BME280;59834;52.124;5.422;2023-11-21T10:20:41;101734.88;;;9.00;100.00
71964;BME280;59834;52.124;5.422;2023-11-21T10:23:10;101741.53;;;9.07;100.00
71964;BME280;59834;52.124;5.422;2023-11-21T10:25:38;101741.41;;;9.10;100.00
71964;BME280;59834;52.124;5.422;2023-11-21T10:28:04;101748.88;;;9.17;100.00
71964;BME280;59834;52.124;5.422;2023-11-21T10:30:37;101746.16;;;9.20;100.00
71964;BME280;59834;52.124;5.422;2023-11-21T10:33:05;101746.88;;;9.24;100.00
71964;BME280;59834;52.124;5.422;2023-11-21T10:35:48;101757.25;;;9.26;100.00
71964;BME280;59834;52.124;5.422;2023-11-21T10:38:21;101760.06;;;9.21;100.00
71964;BME280;59834;52.124;5.422;2023-11-21T10:40:50;101762.88;;;9.16;100.00
71964;BME280;59834;52.124;5.422;2023-11-21T10:43:24;101767.50;;;9.10;100.00
71964;BME280;59834;52.124;5.422;2023-11-21T10:45:51;101779.78;;;9.08;100.00
71964;BME280;59834;52.124;5.422;2023-11-21T10:48:18;101785.13;;;9.05;100.00
71964;BME280;59834;52.124;5.422;2023-11-21T10:50:47;101785.25;;;9.02;100.00
71964;BME280;59834;52.124;5.422;2023-11-21T10:53:14;101806.25;;;8.98;100.00
71964;BME280;59834;52.124;5.422;2023-11-21T10:55:42;101800.28;;;8.96;100.00
71964;BME280;59834;52.124;5.422;2023-11-21T10:58:13;101803.72;;;8.97;100.00
71964;BME280;59834;52.124;5.422;2023-11-21T11:00:40;101808.88;;;8.98;100.00
71964;BME280;59834;52.124;5.422;2023-11-21T11:03:07;101817.50;;;9.01;100.00
71964;BME280;59834;52.124;5.422;2023-11-21T11:05:43;101811.34;;;9.02;100.00
71964;BME280;59834;52.124;5.422;2023-11-21T11:08:21;101813.09;;;9.03;100.00
71964;BME280;59834;52.124;5.422;2023-11-21T11:10:54;101822.53;;;9.05;100.00
71964;BME280;59834;52.124;5.422;2023-11-21T11:13:22;101806.81;;;9.07;100.00
71964;BME280;59834;52.124;5.422;2023-11-21T11:15:50;101811.91;;;9.10;100.00
71964;BME280;59834;52.124;5.422;2023-11-21T11:18:18;101807.53;;;9.10;100.00
71964;BME280;59834;52.124;5.422;2023-11-21T11:20:49;101811.00;;;9.11;100.00
71964;BME280;59834;52.124;5.422;2023-11-21T11:23:43;101819.75;;;9.10;100.00
71964;BME280;59834;52.124;5.422;2023-11-21T11:26:34;101818.19;;;9.06;100.00
71964;BME280;59834;52.124;5.422;2023-11-21T11:29:14;101816.47;;;9.05;100.00
71964;BME280;59834;52.124;5.422;2023-11-21T11:32:21;101825.09;;;9.07;100.00
71964;BME280;59834;52.124;5.422;2023-11-21T11:37:22;101820.59;;;9.10;100.00
71964;BME280;59834;52.124;5.422;2023-11-21T11:39:50;101821.19;;;9.17;100.00
71964;BME280;59834;52.124;5.422;2023-11-21T11:42:17;101822.81;;;9.19;100.00
71964;BME280;59834;52.124;5.422;2023-11-21T11:44:47;101828.81;;;9.21;100.00
71964;BME280;59834;52.124;5.422;2023-11-21T11:47:23;101829.66;;;9.22;100.00
71964;BME280;59834;52.124;5.422;2023-11-21T11:52:40;101833.44;;;9.15;100.00
71964;BME280;59834;52.124;5.422;2023-11-21T11:55:12;101841.34;;;9.13;100.00
71964;BME280;59834;52.124;5.422;2023-11-21T11:57:41;101847.22;;;9.18;100.00
71964;BME280;59834;52.124;5.422;2023-11-21T12:02:38;101856.59;;;9.24;100.00
71964;BME280;59834;52.124;5.422;2023-11-21T12:05:13;101857.50;;;9.23;100.00
71964;BME280;59834;52.124;5.422;2023-11-21T12:07:52;101863.63;;;9.22;100.00
71964;BME280;59834;52.124;5.422;2023-11-21T12:10:26;101868.91;;;9.20;100.00
71964;BME280;59834;52.124;5.422;2023-11-21T12:12:55;101873.31;;;9.20;100.00
71964;BME280;59834;52.124;5.422;2023-11-21T12:15:22;101866.31;;;9.20;100.00
71964;BME280;59834;52.124;5.422;2023-11-21T12:17:49;101878.53;;;9.20;100.00
71964;BME280;59834;52.124;5.422;2023-11-21T12:20:22;101878.66;;;9.17;100.00
71964;BME280;59834;52.124;5.422;2023-11-21T12:22:58;101881.25;;;9.17;100.00
71964;BME280;59834;52.124;5.422;2023-11-21T12:25:29;101875.97;;;9.18;100.00
71964;BME280;59834;52.124;5.422;2023-11-21T12:27:58;101880.34;;;9.18;100.00
71964;BME280;59834;52.124;5.422;2023-11-21T12:30:27;101885.56;;;9.18;100.00
71964;BME280;59834;52.124;5.422;2023-11-21T12:32:58;101876.88;;;9.17;100.00
71964;BME280;59834;52.124;5.422;2023-11-21T12:35:27;101876.13;;;9.15;100.00
71964;BME280;59834;52.124;5.422;2023-11-21T12:37:55;101882.31;;;9.13;100.00
71964;BME280;59834;52.124;5.422;2023-11-21T12:40:24;101877.13;;;9.11;100.00
71964;BME280;59834;52.124;5.422;2023-11-21T12:42:56;101884.97;;;9.11;100.00
71964;BME280;59834;52.124;5.422;2023-11-21T12:45:24;101891.09;;;9.10;100.00
71964;BME280;59834;52.124;5.422;2023-11-21T12:47:56;101891.19;;;9.09;100.00
71964;BME280;59834;52.124;5.422;2023-11-21T12:50:28;101896.53;;;9.06;100.00
71964;BME280;59834;52.124;5.422;2023-11-21T12:53:00;101900.94;;;9.04;100.00
71964;BME280;59834;52.124;5.422;2023-11-21T12:55:30;101905.31;;;9.03;100.00
71964;BME280;59834;52.124;5.422;2023-11-21T12:57:57;101910.47;;;9.05;100.00
71964;BME280;59834;52.124;5.422;2023-11-21T13:00:35;101917.34;;;9.07;100.00
71964;BME280;59834;52.124;5.422;2023-11-21T13:03:07;101905.94;;;9.10;100.00
71964;BME280;59834;52.124;5.422;2023-11-21T13:05:39;101916.13;;;9.16;100.00
71964;BME280;59834;52.124;5.422;2023-11-21T13:08:09;101919.34;;;9.23;100.00